createdAt,value
2023-02-11T00:00:42.092Z,3.01
2023-02-11T00:03:09.652Z,3.02
2023-02-11T00:05:36.413Z,3.11
2023-02-11T00:08:02.849Z,3.05
2023-02-11T00:10:29.244Z,3.05
2023-02-11T00:12:56.159Z,3.10
2023-02-11T00:15:23.146Z,3.05
2023-02-11T00:17:49.649Z,2.94
2023-02-11T00:20:16.140Z,2.99
2023-02-11T00:22:43.040Z,2.93
2023-02-11T00:25:09.454Z,2.95
2023-02-11T00:27:37.368Z,2.99
2023-02-11T00:30:05.641Z,2.95
2023-02-11T00:32:32.173Z,2.94
2023-02-11T00:34:59.024Z,2.85
2023-02-11T00:37:25.730Z,2.77
2023-02-11T00:39:52.519Z,2.80
2023-02-11T00:42:19.274Z,2.73
2023-02-11T00:44:46.834Z,2.77
2023-02-11T00:47:13.205Z,2.67
2023-02-11T00:49:40.492Z,2.60
2023-02-11T00:52:07.012Z,2.58
2023-02-11T00:54:33.480Z,2.60
2023-02-11T00:56:59.834Z,2.53
2023-02-11T00:59:26.838Z,2.55
2023-02-11T01:01:53.500Z,2.40
2023-02-11T01:04:19.912Z,2.27
2023-02-11T01:06:46.442Z,2.22
2023-02-11T01:09:13.259Z,2.22
2023-02-11T01:11:39.708Z,2.09
2023-02-11T01:14:06.201Z,2.13
2023-02-11T01:16:32.626Z,2.02
2023-02-11T01:18:59.511Z,2.03
2023-02-11T01:21:26.051Z,1.91
2023-02-11T01:23:53.312Z,1.85
2023-02-11T01:26:19.805Z,1.84
2023-02-11T01:28:46.418Z,1.95
2023-02-11T01:31:13.316Z,2.03
2023-02-11T01:33:40.457Z,1.96
2023-02-11T01:36:07.560Z,1.99
2023-02-11T01:38:34.853Z,1.96
2023-02-11T01:41:12.771Z,1.84
2023-02-11T01:43:42.543Z,1.78
2023-02-11T01:46:27.584Z,1.77
2023-02-11T01:49:06.669Z,1.81
2023-02-11T01:51:39.246Z,1.65
2023-02-11T01:54:28.079Z,1.75
2023-02-11T01:57:17.517Z,1.70
2023-02-11T01:59:52.621Z,1.72
2023-02-11T02:02:22.369Z,1.69
2023-02-11T02:04:57.894Z,1.66
2023-02-11T02:07:52.645Z,1.63
2023-02-11T02:10:22.818Z,1.64
2023-02-11T02:12:49.617Z,1.66
2023-02-11T02:15:21.418Z,1.62
2023-02-11T02:18:28.909Z,1.56
2023-02-11T02:21:10.982Z,1.66
2023-02-11T02:23:58.990Z,1.64
2023-02-11T02:26:44.282Z,1.56
2023-02-11T02:29:48.391Z,1.55
2023-02-11T02:32:53.516Z,1.82
2023-02-11T02:35:19.925Z,1.83
2023-02-11T02:38:09.874Z,1.81
2023-02-11T02:41:02.085Z,1.82
2023-02-11T02:43:30.376Z,1.86
2023-02-11T02:46:10.728Z,1.86
2023-02-11T02:48:37.282Z,1.83
2023-02-11T02:51:25.758Z,1.86
2023-02-11T02:53:55.472Z,1.98
2023-02-11T02:56:46.223Z,1.95
2023-02-11T02:59:49.638Z,1.94
2023-02-11T03:02:33.571Z,1.98
2023-02-11T03:05:12.050Z,2.01
2023-02-11T03:07:48.564Z,2.04
2023-02-11T03:10:32.809Z,1.95
2023-02-11T03:13:01.258Z,1.92
2023-02-11T03:15:32.428Z,1.92
2023-02-11T03:18:02.436Z,1.81
2023-02-11T03:20:32.953Z,1.74
2023-02-11T03:23:08.554Z,1.69
2023-02-11T03:25:41.126Z,1.61
2023-02-11T03:28:24.034Z,1.56
2023-02-11T03:31:03.020Z,1.43
2023-02-11T03:33:39.518Z,1.39
2023-02-11T03:36:16.149Z,1.26
2023-02-11T03:38:51.266Z,1.13
2023-02-11T03:41:21.492Z,1.06
2023-02-11T03:43:54.720Z,1.03
2023-02-11T03:46:27.935Z,1.01
2023-02-11T03:48:59.225Z,1.12
2023-02-11T03:51:29.404Z,0.93
2023-02-11T03:53:59.847Z,0.88
2023-02-11T03:56:32.135Z,1.05
2023-02-11T03:58:58.755Z,1.00
2023-02-11T04:01:25.697Z,0.95
2023-02-11T04:03:52.134Z,0.88
2023-02-11T04:06:18.989Z,0.84
2023-02-11T04:08:45.412Z,0.82
2023-02-11T04:11:11.937Z,0.81
2023-02-11T04:13:38.404Z,0.88
2023-02-11T04:16:05.037Z,0.81
2023-02-11T04:18:32.179Z,0.81
2023-02-11T04:20:58.569Z,0.78
2023-02-11T04:23:25.436Z,0.75
2023-02-11T04:25:52.142Z,0.76
2023-02-11T04:28:18.936Z,0.73
2023-02-11T04:30:45.380Z,0.70
2023-02-11T04:33:11.974Z,0.64
2023-02-11T04:35:38.415Z,0.62
2023-02-11T04:38:04.819Z,0.62
2023-02-11T04:40:31.587Z,0.62
2023-02-11T04:42:58.271Z,0.56
2023-02-11T04:45:24.758Z,0.48
2023-02-11T04:47:51.396Z,0.41
2023-02-11T04:50:17.986Z,0.34
2023-02-11T04:52:44.976Z,0.31
2023-02-11T04:55:11.722Z,0.28
2023-02-11T04:57:38.728Z,0.30
2023-02-11T05:00:06.504Z,0.25
2023-02-11T05:02:32.928Z,0.32
2023-02-11T05:05:00.489Z,0.39
2023-02-11T05:07:27.058Z,0.35
2023-02-11T05:09:53.986Z,0.32
2023-02-11T05:12:20.355Z,0.26
2023-02-11T05:14:47.261Z,0.34
2023-02-11T05:17:13.646Z,0.37
2023-02-11T05:19:41.827Z,0.44
2023-02-11T05:22:08.456Z,0.49
2023-02-11T05:24:35.673Z,0.54
2023-02-11T05:27:02.334Z,0.56
2023-02-11T05:29:28.884Z,0.62
2023-02-11T05:31:55.292Z,0.63
2023-02-11T05:34:22.990Z,0.65
2023-02-11T05:36:49.392Z,0.76
2023-02-11T05:39:16.972Z,0.83
2023-02-11T05:41:43.603Z,0.89
2023-02-11T05:44:10.147Z,0.95
2023-02-11T05:46:36.692Z,1.02
2023-02-11T05:49:03.574Z,1.07
2023-02-11T05:51:30.018Z,1.11
2023-02-11T05:53:56.566Z,1.15
2023-02-11T05:56:24.071Z,1.21
2023-02-11T05:58:50.634Z,1.29
2023-02-11T06:01:17.220Z,1.42
2023-02-11T06:03:43.642Z,1.48
2023-02-11T06:06:12.163Z,1.54
2023-02-11T06:08:39.649Z,1.69
2023-02-11T06:11:07.402Z,1.69
2023-02-11T06:13:34.120Z,1.82
2023-02-11T06:16:01.986Z,1.79
2023-02-11T06:18:29.801Z,1.98
2023-02-11T06:20:57.091Z,1.87
2023-02-11T06:23:23.683Z,1.85
2023-02-11T06:25:51.055Z,1.87
2023-02-11T06:28:17.684Z,1.99
2023-02-11T06:30:44.711Z,2.15
2023-02-11T06:33:11.508Z,2.17
2023-02-11T06:35:40.739Z,2.19
2023-02-11T06:38:07.603Z,2.29
2023-02-11T06:40:34.415Z,2.23
2023-02-11T06:43:00.855Z,2.24
2023-02-11T06:45:27.578Z,2.25
2023-02-11T06:47:53.943Z,2.20
2023-02-11T06:50:20.943Z,2.20
2023-02-11T06:52:47.341Z,2.24
2023-02-11T06:55:14.557Z,2.31
2023-02-11T06:57:41.179Z,2.24
2023-02-11T07:00:08.588Z,2.23
2023-02-11T07:02:35.962Z,2.28
2023-02-11T07:05:03.001Z,2.35
2023-02-11T07:07:30.822Z,2.38
2023-02-11T07:09:58.866Z,2.43
2023-02-11T07:12:25.302Z,2.55
2023-02-11T07:14:52.862Z,2.48
2023-02-11T07:17:19.380Z,2.41
2023-02-11T07:19:45.753Z,2.47
2023-02-11T07:22:12.260Z,2.51
2023-02-11T07:24:38.717Z,2.49
2023-02-11T07:27:05.439Z,2.46
2023-02-11T07:29:32.084Z,2.53
2023-02-11T07:31:59.184Z,2.49
2023-02-11T07:34:25.693Z,2.49
2023-02-11T07:36:52.405Z,2.53
2023-02-11T07:39:20.204Z,2.53
2023-02-11T07:41:48.897Z,2.68
2023-02-11T07:44:15.696Z,2.66
2023-02-11T07:46:45.606Z,2.63
2023-02-11T07:49:12.987Z,2.63
2023-02-11T07:51:39.970Z,2.66
2023-02-11T07:54:06.617Z,2.72
2023-02-11T07:56:34.153Z,2.74
2023-02-11T07:59:03.523Z,2.80
2023-02-11T08:01:46.413Z,2.88
2023-02-11T08:04:12.910Z,2.81
2023-02-11T08:06:43.334Z,2.85
2023-02-11T08:09:14.209Z,2.80
2023-02-11T08:11:42.119Z,2.80
2023-02-11T08:14:11.139Z,2.87
2023-02-11T08:16:41.841Z,2.90
2023-02-11T08:19:12.776Z,3.05
2023-02-11T08:21:40.563Z,2.96
2023-02-11T08:24:07.313Z,2.87
2023-02-11T08:26:34.877Z,2.96
2023-02-11T08:29:03.648Z,2.97
2023-02-11T08:31:34.938Z,2.96
2023-02-11T08:34:02.622Z,2.89
2023-02-11T08:36:31.772Z,2.91
2023-02-11T08:39:17.459Z,2.96
2023-02-11T08:41:46.082Z,3.06
2023-02-11T08:44:13.195Z,3.12
2023-02-11T08:46:39.895Z,3.06
2023-02-11T08:49:06.775Z,3.10
2023-02-11T08:51:33.372Z,3.14
2023-02-11T08:54:01.072Z,3.18
2023-02-11T08:56:28.404Z,3.18
2023-02-11T08:58:55.576Z,3.13
2023-02-11T09:01:25.302Z,3.12
2023-02-11T09:03:53.298Z,3.15
2023-02-11T09:06:20.836Z,3.14
2023-02-11T09:08:49.982Z,3.15
2023-02-11T09:11:18.777Z,3.17
2023-02-11T09:13:46.022Z,3.07
2023-02-11T09:16:21.821Z,3.12
2023-02-11T09:18:49.188Z,3.10
2023-02-11T09:21:17.529Z,3.15
2023-02-11T09:23:44.724Z,3.13
2023-02-11T09:26:15.135Z,3.23
2023-02-11T09:28:42.077Z,3.34
2023-02-11T09:31:11.272Z,3.28
2023-02-11T09:33:40.366Z,3.31
2023-02-11T09:36:07.479Z,3.37
2023-02-11T09:38:34.462Z,3.36
2023-02-11T09:41:04.695Z,3.33
2023-02-11T09:43:44.482Z,3.42
2023-02-11T09:46:16.365Z,3.42
2023-02-11T09:48:45.464Z,3.56
2023-02-11T09:51:34.325Z,3.51
2023-02-11T09:54:07.907Z,3.61
2023-02-11T09:56:34.643Z,3.59
2023-02-11T09:59:01.118Z,3.53
2023-02-11T10:01:44.478Z,3.59
2023-02-11T10:04:30.519Z,3.53
2023-02-11T10:07:08.342Z,3.61
2023-02-11T10:09:57.086Z,3.63
2023-02-11T10:12:40.648Z,3.63
2023-02-11T10:15:06.988Z,3.67
2023-02-11T10:17:33.759Z,3.69
2023-02-11T10:20:16.956Z,3.70
2023-02-11T10:22:49.700Z,3.80
2023-02-11T10:25:26.617Z,3.86
2023-02-11T10:27:57.205Z,3.92
2023-02-11T10:30:35.844Z,3.91
2023-02-11T10:33:28.339Z,4.10
2023-02-11T10:35:55.026Z,4.16
2023-02-11T10:38:21.629Z,4.11
2023-02-11T10:40:48.294Z,4.09
2023-02-11T10:43:17.251Z,4.12
2023-02-11T10:45:46.804Z,4.19
2023-02-11T10:48:44.389Z,4.18
2023-02-11T10:51:13.379Z,4.21
2023-02-11T10:53:40.745Z,4.26
2023-02-11T10:56:12.876Z,4.16
2023-02-11T10:58:46.908Z,4.09
2023-02-11T11:01:24.403Z,4.15
2023-02-11T11:03:52.979Z,4.12
2023-02-11T11:06:31.527Z,4.13
2023-02-11T11:08:58.486Z,4.13
2023-02-11T11:11:26.510Z,4.13
2023-02-11T11:13:53.244Z,4.11
2023-02-11T11:16:19.667Z,4.13
2023-02-11T11:18:49.181Z,4.08
2023-02-11T11:21:18.649Z,4.10
2023-02-11T11:23:56.080Z,4.13
2023-02-11T11:26:23.622Z,4.16
2023-02-11T11:29:00.244Z,4.21
2023-02-11T11:31:34.337Z,4.18
2023-02-11T11:34:17.510Z,4.15
2023-02-11T11:36:44.519Z,4.24
2023-02-11T11:39:24.122Z,4.32
2023-02-11T11:41:56.546Z,4.31
2023-02-11T11:44:28.104Z,4.32
2023-02-11T11:47:13.523Z,4.28
2023-02-11T11:50:01.109Z,4.32
2023-02-11T11:52:49.391Z,4.36
2023-02-11T11:55:28.593Z,4.39
2023-02-11T11:57:55.255Z,4.39
2023-02-11T12:00:29.763Z,4.43
2023-02-11T12:03:18.748Z,4.47
2023-02-11T12:06:03.759Z,4.49
2023-02-11T12:09:01.105Z,4.53
2023-02-11T12:11:59.032Z,4.56
2023-02-11T12:14:57.281Z,4.60
2023-02-11T12:17:33.429Z,4.65
2023-02-11T12:20:18.091Z,4.66
2023-02-11T12:22:52.107Z,4.69
2023-02-11T12:25:29.711Z,4.74
2023-02-11T12:28:15.157Z,4.68
2023-02-11T12:30:41.558Z,4.65
2023-02-11T12:33:26.499Z,4.65
2023-02-11T12:36:15.026Z,4.67
2023-02-11T12:38:58.103Z,4.73
2023-02-11T12:41:51.769Z,4.76
2023-02-11T12:44:42.871Z,4.77
2023-02-11T12:47:21.809Z,4.82
2023-02-11T12:49:48.123Z,4.83
2023-02-11T12:52:39.837Z,4.91
2023-02-11T12:55:37.052Z,4.91
2023-02-11T12:58:05.060Z,4.98
2023-02-11T13:00:42.567Z,4.96
2023-02-11T13:03:32.663Z,4.92
2023-02-11T13:06:05.332Z,4.91
2023-02-11T13:08:44.152Z,4.92
2023-02-11T13:11:19.035Z,4.95
2023-02-11T13:13:45.425Z,4.92
2023-02-11T13:16:35.453Z,4.93
2023-02-11T13:19:21.294Z,4.91
2023-02-11T13:22:15.758Z,4.94
2023-02-11T13:24:59.416Z,4.96
2023-02-11T13:27:31.892Z,4.97
2023-02-11T13:30:21.338Z,5.03
2023-02-11T13:32:53.674Z,5.08
2023-02-11T13:35:40.051Z,5.05
2023-02-11T13:38:18.748Z,5.07
2023-02-11T13:40:46.228Z,5.11
2023-02-11T13:43:30.453Z,5.10
2023-02-11T13:46:03.998Z,5.09
2023-02-11T13:48:45.271Z,5.16
2023-02-11T13:51:15.311Z,5.15
2023-02-11T13:53:54.067Z,5.21
2023-02-11T13:56:30.795Z,5.21
2023-02-11T13:59:01.885Z,5.24
2023-02-11T14:02:40.773Z,5.37
2023-02-11T14:05:26.047Z,5.29
2023-02-11T14:08:31.776Z,5.33
2023-02-11T14:11:02.756Z,5.36
2023-02-11T14:13:34.507Z,5.40
2023-02-11T14:16:22.642Z,5.34
2023-02-11T14:18:54.727Z,5.36
2023-02-11T14:21:30.339Z,5.52
2023-02-11T14:24:05.221Z,5.45
2023-02-11T14:26:53.920Z,5.49
2023-02-11T14:29:46.524Z,5.48
2023-02-11T14:32:45.631Z,5.49
2023-02-11T14:35:40.992Z,5.54
2023-02-11T14:38:30.604Z,5.59
2023-02-11T14:41:20.026Z,5.53
2023-02-11T14:43:51.418Z,5.53
2023-02-11T14:46:20.463Z,5.68
2023-02-11T14:48:50.369Z,5.61
2023-02-11T14:51:31.493Z,5.60
2023-02-11T14:54:03.240Z,5.60
2023-02-11T14:56:31.409Z,5.63
2023-02-11T14:58:58.667Z,5.66
2023-02-11T15:01:35.494Z,5.67
2023-02-11T15:04:04.365Z,5.66
2023-02-11T15:06:38.165Z,5.70
2023-02-11T15:09:14.749Z,5.64
2023-02-11T15:11:43.684Z,5.68
2023-02-11T15:14:19.536Z,5.77
2023-02-11T15:16:47.053Z,5.73
2023-02-11T15:19:40.943Z,5.76
2023-02-11T15:22:22.472Z,5.70
2023-02-11T15:25:10.252Z,5.74
2023-02-11T15:27:41.833Z,5.74
2023-02-11T15:30:23.713Z,5.67
2023-02-11T15:32:53.998Z,5.70
2023-02-11T15:35:20.492Z,5.70
2023-02-11T15:37:48.956Z,5.69
2023-02-11T15:40:19.503Z,5.74
2023-02-11T15:43:08.123Z,5.75
2023-02-11T15:45:38.726Z,5.79
2023-02-11T15:48:08.122Z,5.75
2023-02-11T15:50:37.645Z,5.74
2023-02-11T15:53:25.334Z,5.76
2023-02-11T15:55:58.765Z,5.78
2023-02-11T15:58:25.359Z,5.73
2023-02-11T16:01:00.147Z,5.71
2023-02-11T16:03:32.378Z,5.73
2023-02-11T16:06:24.985Z,5.75
2023-02-11T16:09:05.853Z,5.72
2023-02-11T16:11:54.060Z,5.70
2023-02-11T16:14:33.111Z,5.74
2023-02-11T16:17:25.529Z,5.73
2023-02-11T16:19:54.660Z,5.72
2023-02-11T16:22:30.143Z,5.67
2023-02-11T16:25:00.038Z,5.63
2023-02-11T16:27:37.054Z,5.59
2023-02-11T16:30:04.556Z,5.58
2023-02-11T16:32:30.912Z,5.57
2023-02-11T16:35:01.039Z,5.58
2023-02-11T16:37:27.680Z,5.59
2023-02-11T16:39:54.911Z,5.58
2023-02-11T16:42:21.752Z,5.57
2023-02-11T16:44:48.148Z,5.59
2023-02-11T16:47:26.575Z,5.58
2023-02-11T16:49:53.952Z,5.57
2023-02-11T16:52:21.933Z,5.55
2023-02-11T16:54:48.599Z,5.53
2023-02-11T16:57:17.676Z,5.52
2023-02-11T16:59:44.828Z,5.51
2023-02-11T17:02:21.729Z,5.51
2023-02-11T17:04:50.448Z,5.48
2023-02-11T17:07:16.860Z,5.47
2023-02-11T17:09:43.306Z,5.43
2023-02-11T17:12:09.716Z,5.43
2023-02-11T17:14:36.182Z,5.41
2023-02-11T17:17:03.208Z,5.37
2023-02-11T17:19:29.952Z,5.33
2023-02-11T17:21:56.309Z,5.32
2023-02-11T17:24:22.755Z,5.30
2023-02-11T17:26:49.976Z,5.29
2023-02-11T17:29:21.606Z,5.26
2023-02-11T17:31:48.205Z,5.23
2023-02-11T17:34:16.107Z,5.24
2023-02-11T17:36:42.520Z,5.23
2023-02-11T17:39:09.518Z,5.23
2023-02-11T17:41:40.234Z,5.22
2023-02-11T17:44:07.684Z,5.20
2023-02-11T17:46:34.800Z,5.20
2023-02-11T17:49:02.121Z,5.15
2023-02-11T17:51:33.559Z,5.14
2023-02-11T17:54:02.996Z,5.14
2023-02-11T17:56:31.993Z,5.08
2023-02-11T17:58:58.610Z,5.08
2023-02-11T18:01:29.198Z,5.06
2023-02-11T18:03:55.704Z,5.05
2023-02-11T18:06:22.112Z,5.06
2023-02-11T18:08:48.788Z,5.15
2023-02-11T18:11:16.891Z,5.19
2023-02-11T18:13:45.160Z,5.10
2023-02-11T18:16:15.739Z,5.12
2023-02-11T18:18:43.437Z,5.06
2023-02-11T18:21:15.849Z,5.01
2023-02-11T18:23:43.163Z,5.11
2023-02-11T18:26:11.567Z,5.06
2023-02-11T18:28:38.735Z,5.05
2023-02-11T18:31:06.648Z,5.15
2023-02-11T18:33:33.907Z,5.17
2023-02-11T18:36:00.333Z,5.31
2023-02-11T18:38:26.831Z,5.28
2023-02-11T18:40:57.660Z,5.30
2023-02-11T18:43:24.168Z,5.22
2023-02-11T18:45:51.543Z,5.14
2023-02-11T18:48:19.468Z,5.07
2023-02-11T18:50:46.895Z,4.97
2023-02-11T18:53:15.941Z,4.95
2023-02-11T18:55:45.465Z,4.93
2023-02-11T18:58:12.252Z,4.94
2023-02-11T19:00:41.340Z,4.93
2023-02-11T19:03:08.119Z,4.92
2023-02-11T19:05:43.715Z,4.87
2023-02-11T19:08:10.777Z,4.86
2023-02-11T19:10:47.818Z,4.87
2023-02-11T19:13:14.999Z,4.83
2023-02-11T19:15:43.185Z,4.80
2023-02-11T19:18:10.259Z,4.81
2023-02-11T19:20:42.879Z,4.81
2023-02-11T19:23:10.818Z,4.76
2023-02-11T19:25:38.082Z,4.77
2023-02-11T19:28:04.671Z,4.78
2023-02-11T19:30:31.555Z,4.76
2023-02-11T19:32:58.672Z,4.78
2023-02-11T19:35:25.484Z,4.76
2023-02-11T19:37:52.355Z,4.74
2023-02-11T19:40:21.071Z,4.72
2023-02-11T19:42:47.666Z,4.73
2023-02-11T19:45:14.079Z,4.76
2023-02-11T19:47:41.190Z,4.76
2023-02-11T19:50:08.690Z,4.75
2023-02-11T19:52:40.701Z,4.78
2023-02-11T19:55:08.116Z,4.79
2023-02-11T19:57:36.598Z,4.76
2023-02-11T20:00:04.302Z,4.73
2023-02-11T20:02:31.122Z,4.74
2023-02-11T20:04:57.604Z,4.81
2023-02-11T20:07:24.126Z,4.79
2023-02-11T20:09:50.741Z,4.78
2023-02-11T20:12:17.184Z,4.84
2023-02-11T20:14:43.728Z,4.86
2023-02-11T20:17:10.213Z,4.88
2023-02-11T20:19:36.618Z,4.94
2023-02-11T20:22:03.268Z,4.94
2023-02-11T20:24:30.385Z,4.94
2023-02-11T20:26:57.287Z,4.99
2023-02-11T20:29:24.503Z,4.99
2023-02-11T20:31:51.390Z,4.99
2023-02-11T20:34:18.682Z,5.01
2023-02-11T20:36:51.471Z,4.99
2023-02-11T20:39:18.628Z,5.02
2023-02-11T20:41:46.404Z,5.02
2023-02-11T20:44:13.867Z,5.01
2023-02-11T20:46:43.233Z,4.97
2023-02-11T20:49:18.901Z,4.93
2023-02-11T20:51:45.522Z,4.95
2023-02-11T20:54:18.048Z,4.94
2023-02-11T20:56:47.691Z,4.89
2023-02-11T20:59:15.221Z,4.88
2023-02-11T21:01:44.779Z,4.85
2023-02-11T21:04:16.929Z,4.91
2023-02-11T21:06:47.224Z,4.87
2023-02-11T21:09:16.299Z,4.93
2023-02-11T21:11:43.324Z,4.94
2023-02-11T21:14:10.288Z,4.92
2023-02-11T21:16:37.310Z,4.88
2023-02-11T21:19:04.527Z,4.85
2023-02-11T21:21:31.884Z,4.87
2023-02-11T21:23:58.971Z,4.86
2023-02-11T21:26:25.555Z,4.91
2023-02-11T21:28:52.459Z,4.95
2023-02-11T21:31:23.156Z,4.96
2023-02-11T21:33:50.943Z,5.06
2023-02-11T21:36:17.801Z,5.15
2023-02-11T21:38:45.342Z,5.16
2023-02-11T21:41:12.492Z,5.16
2023-02-11T21:43:39.002Z,5.19
2023-02-11T21:46:11.057Z,5.23
2023-02-11T21:48:37.788Z,5.23
2023-02-11T21:51:09.807Z,5.23
2023-02-11T21:53:37.453Z,5.28
2023-02-11T21:56:12.019Z,5.29
2023-02-11T21:58:38.910Z,5.29
2023-02-11T22:01:11.744Z,5.31
2023-02-11T22:03:39.403Z,5.31
2023-02-11T22:06:08.122Z,5.32
2023-02-11T22:08:35.257Z,5.32
2023-02-11T22:11:06.243Z,5.33
2023-02-11T22:13:33.650Z,5.38
2023-02-11T22:16:01.922Z,5.32
2023-02-11T22:18:30.709Z,5.33
2023-02-11T22:21:09.212Z,5.31
2023-02-11T22:23:36.311Z,5.29
2023-02-11T22:26:10.592Z,5.22
2023-02-11T22:28:39.137Z,5.22
2023-02-11T22:31:06.368Z,5.18
2023-02-11T22:33:34.091Z,5.17
2023-02-11T22:36:01.593Z,5.24
2023-02-11T22:38:29.523Z,5.28
2023-02-11T22:40:56.172Z,5.26
2023-02-11T22:43:22.953Z,5.23
2023-02-11T22:45:49.967Z,5.19
2023-02-11T22:48:17.073Z,5.15
2023-02-11T22:50:43.461Z,5.14
2023-02-11T22:53:10.093Z,5.12
2023-02-11T22:55:38.800Z,5.09
2023-02-11T22:58:05.641Z,5.13
2023-02-11T23:00:38.076Z,5.16
2023-02-11T23:03:05.924Z,5.14
2023-02-11T23:05:39.204Z,5.12
2023-02-11T23:08:07.729Z,5.16
2023-02-11T23:10:36.284Z,5.15
2023-02-11T23:13:04.887Z,5.17
2023-02-11T23:15:32.114Z,5.17
2023-02-11T23:17:58.964Z,5.18
2023-02-11T23:20:25.786Z,5.18
2023-02-11T23:22:52.830Z,5.17
2023-02-11T23:25:19.204Z,5.20
2023-02-11T23:27:46.202Z,5.22
2023-02-11T23:30:13.146Z,5.22
2023-02-11T23:32:39.610Z,5.20
2023-02-11T23:35:06.576Z,5.19
2023-02-11T23:37:33.055Z,5.20
2023-02-11T23:39:59.907Z,5.18
2023-02-11T23:42:26.338Z,5.15
2023-02-11T23:44:53.085Z,5.13
2023-02-11T23:47:19.649Z,5.12
2023-02-11T23:49:46.483Z,5.10
2023-02-11T23:52:12.936Z,5.11
2023-02-11T23:54:39.817Z,5.10
2023-02-11T23:57:06.205Z,5.10
2023-02-11T23:59:32.744Z,5.10
